Flight Track Log - Related Links

Times and Time Zones

All times are in EDT time to prevent confusion due to time zone crossing. See the THY2229 flight status page for this flight to view local times or setup timezone preferences in your user account.

Time Position Orientation Groundspeed Altitude Reporting Facility
EDT Latitude Longitude Course Direction KTS MPH feet Rate Location/Type
Fri 04:53:00 PM 37.2204 36.9598 304° West  Level Estimated
Fri 04:54:00 PM 37.2747 36.8556 303° West  Level Estimated
Fri 04:55:00 PM 37.3290 36.7512 303° West  Level Estimated
Fri 04:56:00 PM 37.3832 36.6467 303° West  Level Estimated
Fri 04:57:00 PM 37.4373 36.5420 303° West  Level Estimated
Fri 04:58:00 PM 37.4912 36.4371 303° West  Level Estimated
Fri 04:59:00 PM 37.5452 36.3322 303° West  Level Estimated
Fri 05:00:00 PM 37.5990 36.2270 303° West  Level Estimated
Fri 05:01:00 PM 37.6527 36.1218 303° West  Level Estimated
Fri 05:02:00 PM 37.7063 36.0163 303° West  Level Estimated
Fri 05:03:00 PM 37.7598 35.9107 303° West  Level Estimated
Fri 05:04:00 PM 37.8133 35.8050 303° West  Level Estimated
Fri 05:05:00 PM 37.8666 35.6991 303° West  Level Estimated
Fri 05:06:00 PM 37.9198 35.5930 302° West  Level Estimated
Fri 05:07:00 PM 37.9730 35.4868 302° West  Level Estimated
Fri 05:08:00 PM 38.0260 35.3805 302° West  Level Estimated
Fri 05:09:00 PM 38.0790 35.2740 302° West  Level Estimated
Fri 05:10:00 PM 38.1319 35.1673 302° West  Level Estimated
Fri 05:11:00 PM 38.1846 35.0605 302° West  Level Estimated
Fri 05:12:00 PM 38.2373 34.9535 302° West  Level Estimated
Fri 05:13:00 PM 38.2899 34.8464 302° West  Level Estimated
Fri 05:14:00 PM 38.3423 34.7391 302° West  Level Estimated
Fri 05:15:00 PM 38.3947 34.6317 302° West  Level Estimated
Fri 05:16:00 PM 38.4470 34.5241 302° West  Level Estimated
Fri 05:17:00 PM 38.4992 34.4163 302° West  Level Estimated
Fri 05:18:00 PM 38.5512 34.3084 302° West  Level Estimated
Fri 05:19:00 PM 38.6032 34.2004 302° West  Level Estimated
Fri 05:20:00 PM 38.6551 34.0921 302° West  Level Estimated
Fri 05:21:00 PM 38.7069 33.9838 302° West  Level Estimated
Fri 05:22:00 PM 38.7586 33.8752 301° West  Level Estimated
Fri 05:23:00 PM 38.8101 33.7665 301° West  Level Estimated
Fri 05:24:00 PM 38.8616 33.6577 301° West  Level Estimated
Fri 05:25:00 PM 38.9130 33.5487 301° West  Level Estimated
Fri 05:26:00 PM 38.9643 33.4395 301° West  Level Estimated
Fri 05:27:00 PM 39.0154 33.3302 301° West  Level Estimated
Fri 05:28:00 PM 39.0665 33.2207 301° West  Level Estimated
Fri 05:29:00 PM 39.1175 33.1111 301° West  Level Estimated
Fri 05:30:00 PM 39.1684 33.0013 301° West  Level Estimated
Fri 05:31:00 PM 39.2191 32.8913 301° West  Level Estimated
Fri 05:32:00 PM 39.2698 32.7812 301° West  Level Estimated
Fri 05:33:00 PM 39.3203 32.6710 301° West  Level Estimated
Fri 05:34:00 PM 39.3708 32.5605 301° West  Level Estimated
Fri 05:35:00 PM 39.4211 32.4499 301° West  Level Estimated
Fri 05:36:00 PM 39.4714 32.3392 300° West  Level Estimated
Fri 05:37:00 PM 39.5215 32.2283 300° West  Level Estimated
Fri 05:38:00 PM 39.5715 32.1172 300° West  Level Estimated
Fri 05:39:00 PM 39.6215 32.0060 300° West  Level Estimated
Fri 05:40:00 PM 39.6713 31.8946 300° West  Level Estimated
Fri 05:41:00 PM 39.7210 31.7830 300° West  Level Estimated
Fri 05:42:00 PM 39.7706 31.6713 300° West  Level Estimated
Fri 05:43:00 PM 39.8201 31.5595 300° West  Level Estimated
Fri 05:44:00 PM 39.8695 31.4474 300° West  Level Estimated
Fri 05:45:00 PM 39.9188 31.3352 300° West  Level Estimated
Fri 05:46:00 PM 39.9680 31.2229 300° West  Level Estimated
Fri 05:47:00 PM 40.0170 31.1103 300° West  Level Estimated
Fri 05:48:00 PM 40.0660 30.9977 300° West  Level Estimated
Fri 05:49:00 PM 40.1148 30.8848 300° West  Level Estimated
Fri 05:50:00 PM 40.1636 30.7718 299° West  Level Estimated
Fri 05:51:00 PM 40.2122 30.6586 299° West  Level Estimated
Fri 05:52:00 PM 40.2607 30.5453 299° West  Level Estimated
Fri 05:53:00 PM 40.3091 30.4318 299° West  Level Estimated
Fri 05:54:00 PM 40.3574 30.3181 299° West  Level Estimated
Fri 05:55:00 PM 40.4056 30.2043 299° West  Level Estimated
Fri 05:56:00 PM 40.4537 30.0903 299° West  Level Estimated
Fri 05:57:00 PM 40.5017 29.9762 299° West  Level Estimated
Fri 05:58:00 PM 40.5495 29.8619 299° West  Level Estimated
Fri 05:59:00 PM 40.5972 29.7474 299° West  Level Estimated
Fri 06:00:00 PM 40.6449 29.6328 299° West  Level Estimated
Fri 06:01:00 PM 40.6924 29.5180 299° West  Level Estimated
Fri 06:02:00 PM 40.7398 29.4030 299° West  Level Estimated
Fri 06:03:00 PM 40.7870 29.2879 299° West  Level Estimated
Fri 06:04:00 PM 40.8342 29.1726 298° West  Level Estimated
Fri 06:05:00 PM 40.8813 29.0572 298° West  Level Estimated
Fri 06:06:00 PM 40.9282 28.9415 298° West  Level Estimated
Fri 06:07:00 PM 40.9750 28.8258 298° West  Level Estimated
Fri 06:08:00 PM 40.9769 28.8211 298° West  Level Estimated
Fri 06:09:00 PM 40.9769 28.8211 21° North  Level Estimated
Fri 06:10:00 PM 40.9769 28.8211 21° North  Level Estimated
Fri 06:11:00 PM 40.9769 28.8211 21° North  Level Estimated
Fri 06:12:00 PM 40.9769 28.8211 21° North  Level Estimated
Fri 06:13:00 PM 40.9769 28.8211 21° North  Level Estimated
Fri 06:14:00 PM 40.9769 28.8211 21° North  Level Estimated
Fri 06:15:00 PM 40.9769 28.8211 21° North  Level Estimated
Fri 06:16:00 PM 40.9769 28.8211 21° North  Level Estimated
Fri 06:17:00 PM 40.9769 28.8211 21° North  Level Estimated
Fri 06:18:00 PM 40.9769 28.8211 21° North  Level Estimated
Fri 06:19:00 PM 40.9769 28.8211 21° North  Level Estimated
Fri 06:20:00 PM 40.9769 28.8211 21° North  Level Estimated
Fri 06:21:00 PM 40.9769 28.8211 21° North  Level Estimated
Fri 06:22:00 PM 40.9769 28.8211 21° North  Level Estimated
Fri 06:23:00 PM 40.9769 28.8211 21° North  Level Estimated

Login

Don't have an account? Register now (free) for customized features, flight alerts, and more!